sensor_id;sensor_type;location;lat;lon;timestamp;temperature;humidity
3550;DHT22;45572;48.804;8.330;2022-09-09T00:01:49;18.60;84.70
3550;DHT22;45572;48.804;8.330;2022-09-09T00:04:25;18.60;84.00
3550;DHT22;45572;48.804;8.330;2022-09-09T00:07:01;18.60;84.20
3550;DHT22;45572;48.804;8.330;2022-09-09T00:09:36;18.60;84.50
3550;DHT22;45572;48.804;8.330;2022-09-09T00:12:11;18.60;84.00
3550;DHT22;45572;48.804;8.330;2022-09-09T00:14:49;18.70;84.20
3550;DHT22;45572;48.804;8.330;2022-09-09T00:17:31;18.70;84.60
3550;DHT22;45572;48.804;8.330;2022-09-09T00:20:04;18.70;84.60
3550;DHT22;45572;48.804;8.330;2022-09-09T00:22:42;18.70;85.10
3550;DHT22;45572;48.804;8.330;2022-09-09T00:25:14;18.60;85.30
3550;DHT22;45572;48.804;8.330;2022-09-09T00:27:45;18.50;85.90
3550;DHT22;45572;48.804;8.330;2022-09-09T00:30:16;18.30;86.10
3550;DHT22;45572;48.804;8.330;2022-09-09T00:32:47;18.30;86.30
3550;DHT22;45572;48.804;8.330;2022-09-09T00:35:18;18.30;86.20
3550;DHT22;45572;48.804;8.330;2022-09-09T00:37:52;18.10;85.40
3550;DHT22;45572;48.804;8.330;2022-09-09T00:40:28;18.10;85.70
3550;DHT22;45572;48.804;8.330;2022-09-09T00:43:10;18.20;84.70
3550;DHT22;45572;48.804;8.330;2022-09-09T00:46:01;18.30;85.10
3550;DHT22;45572;48.804;8.330;2022-09-09T00:48:37;18.30;85.30
3550;DHT22;45572;48.804;8.330;2022-09-09T00:51:13;18.40;83.20
3550;DHT22;45572;48.804;8.330;2022-09-09T00:54:05;18.50;82.00
3550;DHT22;45572;48.804;8.330;2022-09-09T00:56:37;18.60;80.50
3550;DHT22;45572;48.804;8.330;2022-09-09T00:59:20;18.70;79.10
3550;DHT22;45572;48.804;8.330;2022-09-09T01:01:54;18.90;80.50
3550;DHT22;45572;48.804;8.330;2022-09-09T01:04:27;18.90;80.80
3550;DHT22;45572;48.804;8.330;2022-09-09T01:07:03;18.90;82.20
3550;DHT22;45572;48.804;8.330;2022-09-09T01:09:45;18.60;85.10
3550;DHT22;45572;48.804;8.330;2022-09-09T01:12:25;18.40;87.10
3550;DHT22;45572;48.804;8.330;2022-09-09T01:15:01;18.20;88.00
3550;DHT22;45572;48.804;8.330;2022-09-09T01:17:34;17.90;88.10
3550;DHT22;45572;48.804;8.330;2022-09-09T01:20:13;17.70;89.80
3550;DHT22;45572;48.804;8.330;2022-09-09T01:23:03;17.50;90.10
3550;DHT22;45572;48.804;8.330;2022-09-09T01:28:38;17.30;91.00
3550;DHT22;45572;48.804;8.330;2022-09-09T01:31:15;17.30;92.50
3550;DHT22;45572;48.804;8.330;2022-09-09T01:33:46;17.30;92.10
3550;DHT22;45572;48.804;8.330;2022-09-09T01:36:20;17.20;93.10
3550;DHT22;45572;48.804;8.330;2022-09-09T01:38:52;17.20;92.40
3550;DHT22;45572;48.804;8.330;2022-09-09T01:41:21;17.20;93.00
3550;DHT22;45572;48.804;8.330;2022-09-09T01:43:59;17.20;94.20
3550;DHT22;45572;48.804;8.330;2022-09-09T01:46:29;17.30;93.70
3550;DHT22;45572;48.804;8.330;2022-09-09T01:49:00;17.30;93.20
3550;DHT22;45572;48.804;8.330;2022-09-09T01:51:30;17.30;93.60
3550;DHT22;45572;48.804;8.330;2022-09-09T01:54:02;17.30;93.80
3550;DHT22;45572;48.804;8.330;2022-09-09T01:56:39;17.20;93.10
3550;DHT22;45572;48.804;8.330;2022-09-09T01:59:20;16.80;93.10
3550;DHT22;45572;48.804;8.330;2022-09-09T02:02:03;16.70;94.00
3550;DHT22;45572;48.804;8.330;2022-09-09T02:04:39;16.50;94.80
3550;DHT22;45572;48.804;8.330;2022-09-09T02:07:21;16.50;96.10
3550;DHT22;45572;48.804;8.330;2022-09-09T02:09:59;16.40;96.80
3550;DHT22;45572;48.804;8.330;2022-09-09T02:12:30;16.40;96.80
3550;DHT22;45572;48.804;8.330;2022-09-09T02:15:05;16.40;96.80
3550;DHT22;45572;48.804;8.330;2022-09-09T02:17:45;16.50;96.80
3550;DHT22;45572;48.804;8.330;2022-09-09T02:20:19;16.50;96.80
3550;DHT22;45572;48.804;8.330;2022-09-09T02:22:57;16.40;96.80
3550;DHT22;45572;48.804;8.330;2022-09-09T02:25:28;16.40;96.80
3550;DHT22;45572;48.804;8.330;2022-09-09T02:28:07;16.40;96.80
3550;DHT22;45572;48.804;8.330;2022-09-09T02:30:38;16.50;96.80
3550;DHT22;45572;48.804;8.330;2022-09-09T02:33:09;16.50;96.80
3550;DHT22;45572;48.804;8.330;2022-09-09T02:35:45;16.40;96.80
3550;DHT22;45572;48.804;8.330;2022-09-09T02:38:17;16.40;96.80
3550;DHT22;45572;48.804;8.330;2022-09-09T02:40:56;16.40;96.80
3550;DHT22;45572;48.804;8.330;2022-09-09T02:43:25;16.40;96.80
3550;DHT22;45572;48.804;8.330;2022-09-09T02:46:02;16.50;96.80
3550;DHT22;45572;48.804;8.330;2022-09-09T02:48:34;16.50;96.70
3550;DHT22;45572;48.804;8.330;2022-09-09T02:51:09;16.50;96.30
3550;DHT22;45572;48.804;8.330;2022-09-09T02:53:43;16.60;96.20
3550;DHT22;45572;48.804;8.330;2022-09-09T02:56:15;16.60;96.10
3550;DHT22;45572;48.804;8.330;2022-09-09T02:58:46;16.60;95.80
3550;DHT22;45572;48.804;8.330;2022-09-09T03:01:17;16.60;95.70
3550;DHT22;45572;48.804;8.330;2022-09-09T03:03:45;16.60;95.70
3550;DHT22;45572;48.804;8.330;2022-09-09T03:06:15;16.60;95.50
3550;DHT22;45572;48.804;8.330;2022-09-09T03:08:47;16.60;95.50
3550;DHT22;45572;48.804;8.330;2022-09-09T03:11:20;16.60;95.70
3550;DHT22;45572;48.804;8.330;2022-09-09T03:13:48;16.60;95.70
3550;DHT22;45572;48.804;8.330;2022-09-09T03:16:18;16.50;95.40
3550;DHT22;45572;48.804;8.330;2022-09-09T03:18:48;16.50;95.30
3550;DHT22;45572;48.804;8.330;2022-09-09T03:21:16;16.50;95.40
3550;DHT22;45572;48.804;8.330;2022-09-09T03:23:44;16.50;95.30
3550;DHT22;45572;48.804;8.330;2022-09-09T03:26:12;16.60;94.90
3550;DHT22;45572;48.804;8.330;2022-09-09T03:28:44;16.50;95.00
3550;DHT22;45572;48.804;8.330;2022-09-09T03:31:17;16.50;95.60
3550;DHT22;45572;48.804;8.330;2022-09-09T03:33:47;16.50;95.10
3550;DHT22;45572;48.804;8.330;2022-09-09T03:36:17;16.50;95.20
3550;DHT22;45572;48.804;8.330;2022-09-09T03:38:45;16.50;95.40
3550;DHT22;45572;48.804;8.330;2022-09-09T03:41:13;16.60;95.10
3550;DHT22;45572;48.804;8.330;2022-09-09T03:43:42;16.50;95.40
3550;DHT22;45572;48.804;8.330;2022-09-09T03:46:10;16.50;95.20
3550;DHT22;45572;48.804;8.330;2022-09-09T03:48:40;16.60;94.90
3550;DHT22;45572;48.804;8.330;2022-09-09T03:51:07;16.40;95.10
3550;DHT22;45572;48.804;8.330;2022-09-09T03:53:36;16.40;95.40
3550;DHT22;45572;48.804;8.330;2022-09-09T03:56:05;16.30;94.80
3550;DHT22;45572;48.804;8.330;2022-09-09T03:58:34;16.20;95.00
3550;DHT22;45572;48.804;8.330;2022-09-09T04:01:08;16.20;95.30
3550;DHT22;45572;48.804;8.330;2022-09-09T04:03:37;16.10;94.80
3550;DHT22;45572;48.804;8.330;2022-09-09T04:06:09;16.10;94.80
3550;DHT22;45572;48.804;8.330;2022-09-09T04:08:38;16.20;95.00
3550;DHT22;45572;48.804;8.330;2022-09-09T04:11:07;16.10;95.30
3550;DHT22;45572;48.804;8.330;2022-09-09T04:13:36;16.20;95.00
3550;DHT22;45572;48.804;8.330;2022-09-09T04:16:09;16.30;95.10
3550;DHT22;45572;48.804;8.330;2022-09-09T04:18:37;16.40;94.80
3550;DHT22;45572;48.804;8.330;2022-09-09T04:21:08;16.50;94.70
3550;DHT22;45572;48.804;8.330;2022-09-09T04:23:36;16.60;94.60
3550;DHT22;45572;48.804;8.330;2022-09-09T04:26:05;16.70;94.40
3550;DHT22;45572;48.804;8.330;2022-09-09T04:28:35;16.70;94.20
3550;DHT22;45572;48.804;8.330;2022-09-09T04:31:15;16.70;94.20
3550;DHT22;45572;48.804;8.330;2022-09-09T04:33:45;16.70;94.50
3550;DHT22;45572;48.804;8.330;2022-09-09T04:36:15;16.70;93.60
3550;DHT22;45572;48.804;8.330;2022-09-09T04:38:43;16.60;93.50
3550;DHT22;45572;48.804;8.330;2022-09-09T04:41:12;16.50;93.80
3550;DHT22;45572;48.804;8.330;2022-09-09T04:43:43;16.30;94.30
3550;DHT22;45572;48.804;8.330;2022-09-09T04:46:14;16.20;94.50
3550;DHT22;45572;48.804;8.330;2022-09-09T04:48:43;16.30;94.70
3550;DHT22;45572;48.804;8.330;2022-09-09T04:51:13;16.20;94.40
3550;DHT22;45572;48.804;8.330;2022-09-09T04:53:44;16.30;94.10
3550;DHT22;45572;48.804;8.330;2022-09-09T04:56:14;16.40;94.20
3550;DHT22;45572;48.804;8.330;2022-09-09T04:58:54;16.50;94.20
3550;DHT22;45572;48.804;8.330;2022-09-09T05:01:30;16.60;92.70
3550;DHT22;45572;48.804;8.330;2022-09-09T05:04:02;16.60;93.00
3550;DHT22;45572;48.804;8.330;2022-09-09T05:06:32;16.60;92.80
3550;DHT22;45572;48.804;8.330;2022-09-09T05:09:02;16.60;93.30
3550;DHT22;45572;48.804;8.330;2022-09-09T05:11:34;16.70;93.50
3550;DHT22;45572;48.804;8.330;2022-09-09T05:14:10;16.70;93.10
3550;DHT22;45572;48.804;8.330;2022-09-09T05:16:39;16.80;93.00
3550;DHT22;45572;48.804;8.330;2022-09-09T05:19:07;16.70;93.20
3550;DHT22;45572;48.804;8.330;2022-09-09T05:21:42;16.80;93.00
3550;DHT22;45572;48.804;8.330;2022-09-09T05:24:12;16.70;93.10
3550;DHT22;45572;48.804;8.330;2022-09-09T05:26:41;16.70;92.70
3550;DHT22;45572;48.804;8.330;2022-09-09T05:29:09;16.70;92.50
3550;DHT22;45572;48.804;8.330;2022-09-09T05:31:37;16.70;92.10
3550;DHT22;45572;48.804;8.330;2022-09-09T05:34:09;16.70;92.10
3550;DHT22;45572;48.804;8.330;2022-09-09T05:36:38;16.80;92.00
3550;DHT22;45572;48.804;8.330;2022-09-09T05:39:06;16.90;92.10
3550;DHT22;45572;48.804;8.330;2022-09-09T05:41:35;17.10;92.50
3550;DHT22;45572;48.804;8.330;2022-09-09T05:44:03;17.10;91.40
3550;DHT22;45572;48.804;8.330;2022-09-09T05:46:37;17.20;91.60
3550;DHT22;45572;48.804;8.330;2022-09-09T05:49:05;17.40;91.70
3550;DHT22;45572;48.804;8.330;2022-09-09T05:51:35;17.40;90.50
3550;DHT22;45572;48.804;8.330;2022-09-09T05:54:08;17.60;90.30
3550;DHT22;45572;48.804;8.330;2022-09-09T05:56:42;17.70;89.90
3550;DHT22;45572;48.804;8.330;2022-09-09T05:59:14;17.80;89.50
3550;DHT22;45572;48.804;8.330;2022-09-09T06:01:42;17.70;89.20
3550;DHT22;45572;48.804;8.330;2022-09-09T06:04:19;17.70;89.60
3550;DHT22;45572;48.804;8.330;2022-09-09T06:06:52;17.80;89.70
3550;DHT22;45572;48.804;8.330;2022-09-09T06:09:21;17.80;89.40
3550;DHT22;45572;48.804;8.330;2022-09-09T06:11:51;17.60;89.70
3550;DHT22;45572;48.804;8.330;2022-09-09T06:14:20;17.60;89.80
3550;DHT22;45572;48.804;8.330;2022-09-09T06:16:51;17.60;89.90
3550;DHT22;45572;48.804;8.330;2022-09-09T06:19:22;17.80;89.70
3550;DHT22;45572;48.804;8.330;2022-09-09T06:21:55;17.90;89.60
3550;DHT22;45572;48.804;8.330;2022-09-09T06:24:24;18.00;89.50
3550;DHT22;45572;48.804;8.330;2022-09-09T06:26:53;18.20;88.80
3550;DHT22;45572;48.804;8.330;2022-09-09T06:29:26;18.30;89.00
3550;DHT22;45572;48.804;8.330;2022-09-09T06:31:54;18.70;88.40
3550;DHT22;45572;48.804;8.330;2022-09-09T06:34:25;19.10;86.80
3550;DHT22;45572;48.804;8.330;2022-09-09T06:36:55;19.50;85.90
3550;DHT22;45572;48.804;8.330;2022-09-09T06:39:28;19.60;84.70
3550;DHT22;45572;48.804;8.330;2022-09-09T06:41:58;19.90;84.70
3550;DHT22;45572;48.804;8.330;2022-09-09T06:44:46;20.10;82.70
3550;DHT22;45572;48.804;8.330;2022-09-09T06:47:33;19.90;83.10
3550;DHT22;45572;48.804;8.330;2022-09-09T06:50:02;19.90;83.10
3550;DHT22;45572;48.804;8.330;2022-09-09T06:52:33;19.90;83.00
3550;DHT22;45572;48.804;8.330;2022-09-09T06:55:02;19.90;83.80
3550;DHT22;45572;48.804;8.330;2022-09-09T06:57:32;19.90;83.10
3550;DHT22;45572;48.804;8.330;2022-09-09T07:00:08;19.90;83.60
3550;DHT22;45572;48.804;8.330;2022-09-09T07:02:36;19.70;83.80
3550;DHT22;45572;48.804;8.330;2022-09-09T07:05:06;20.00;84.50
3550;DHT22;45572;48.804;8.330;2022-09-09T07:07:34;20.40;82.60
3550;DHT22;45572;48.804;8.330;2022-09-09T07:10:04;20.30;81.10
3550;DHT22;45572;48.804;8.330;2022-09-09T07:12:34;19.90;82.90
3550;DHT22;45572;48.804;8.330;2022-09-09T07:15:04;19.60;83.00
3550;DHT22;45572;48.804;8.330;2022-09-09T07:17:32;20.40;81.80
3550;DHT22;45572;48.804;8.330;2022-09-09T07:20:02;21.00;77.50
3550;DHT22;45572;48.804;8.330;2022-09-09T07:22:30;21.40;76.00
3550;DHT22;45572;48.804;8.330;2022-09-09T07:24:59;21.40;75.80
3550;DHT22;45572;48.804;8.330;2022-09-09T07:27:28;21.50;76.40
3550;DHT22;45572;48.804;8.330;2022-09-09T07:29:58;21.50;75.70
3550;DHT22;45572;48.804;8.330;2022-09-09T07:32:26;22.00;74.50
3550;DHT22;45572;48.804;8.330;2022-09-09T07:34:54;21.30;76.10
3550;DHT22;45572;48.804;8.330;2022-09-09T07:37:23;21.00;77.80
3550;DHT22;45572;48.804;8.330;2022-09-09T07:39:51;20.90;78.40
3550;DHT22;45572;48.804;8.330;2022-09-09T07:42:19;20.50;79.30
3550;DHT22;45572;48.804;8.330;2022-09-09T07:44:47;20.30;80.20
3550;DHT22;45572;48.804;8.330;2022-09-09T07:47:17;20.20;81.00
3550;DHT22;45572;48.804;8.330;2022-09-09T07:49:49;20.50;80.20
3550;DHT22;45572;48.804;8.330;2022-09-09T07:52:23;20.80;80.10
3550;DHT22;45572;48.804;8.330;2022-09-09T07:54:55;21.80;77.20
3550;DHT22;45572;48.804;8.330;2022-09-09T07:57:23;23.20;73.50
3550;DHT22;45572;48.804;8.330;2022-09-09T07:59:53;25.00;68.90
3550;DHT22;45572;48.804;8.330;2022-09-09T08:02:23;26.50;65.40
3550;DHT22;45572;48.804;8.330;2022-09-09T08:04:53;26.50;60.40
3550;DHT22;45572;48.804;8.330;2022-09-09T08:07:21;26.30;63.60
3550;DHT22;45572;48.804;8.330;2022-09-09T08:09:53;26.40;62.20
3550;DHT22;45572;48.804;8.330;2022-09-09T08:12:26;25.90;62.30
3550;DHT22;45572;48.804;8.330;2022-09-09T08:14:57;26.30;61.70
3550;DHT22;45572;48.804;8.330;2022-09-09T08:17:30;26.50;62.50
3550;DHT22;45572;48.804;8.330;2022-09-09T08:20:03;26.30;62.40
3550;DHT22;45572;48.804;8.330;2022-09-09T08:22:34;26.90;62.50
3550;DHT22;45572;48.804;8.330;2022-09-09T08:25:05;27.20;60.30
3550;DHT22;45572;48.804;8.330;2022-09-09T08:27:35;27.20;57.90
3550;DHT22;45572;48.804;8.330;2022-09-09T08:30:04;26.20;59.80
3550;DHT22;45572;48.804;8.330;2022-09-09T08:32:33;25.40;62.00
3550;DHT22;45572;48.804;8.330;2022-09-09T08:35:01;25.40;64.40
3550;DHT22;45572;48.804;8.330;2022-09-09T08:37:33;25.20;63.70
3550;DHT22;45572;48.804;8.330;2022-09-09T08:40:02;24.70;64.90
3550;DHT22;45572;48.804;8.330;2022-09-09T08:42:36;24.40;65.90
3550;DHT22;45572;48.804;8.330;2022-09-09T08:45:14;23.50;67.60
3550;DHT22;45572;48.804;8.330;2022-09-09T08:47:57;23.60;69.60
3550;DHT22;45572;48.804;8.330;2022-09-09T08:50:31;23.80;71.00
3550;DHT22;45572;48.804;8.330;2022-09-09T08:53:11;24.20;70.00
3550;DHT22;45572;48.804;8.330;2022-09-09T08:55:43;24.20;69.10
3550;DHT22;45572;48.804;8.330;2022-09-09T08:58:15;24.40;68.80
3550;DHT22;45572;48.804;8.330;2022-09-09T09:01:00;24.50;68.80
3550;DHT22;45572;48.804;8.330;2022-09-09T09:03:42;24.80;69.70
3550;DHT22;45572;48.804;8.330;2022-09-09T09:06:25;25.20;67.60
3550;DHT22;45572;48.804;8.330;2022-09-09T09:09:01;25.60;66.20
3550;DHT22;45572;48.804;8.330;2022-09-09T09:11:35;25.20;66.30
3550;DHT22;45572;48.804;8.330;2022-09-09T09:14:11;25.10;66.60
3550;DHT22;45572;48.804;8.330;2022-09-09T09:16:48;24.90;66.30
3550;DHT22;45572;48.804;8.330;2022-09-09T09:19:20;24.70;67.30
3550;DHT22;45572;48.804;8.330;2022-09-09T09:21:53;24.00;67.90
3550;DHT22;45572;48.804;8.330;2022-09-09T09:24:27;23.70;70.70
3550;DHT22;45572;48.804;8.330;2022-09-09T09:27:00;23.00;70.40
3550;DHT22;45572;48.804;8.330;2022-09-09T09:29:34;22.10;74.00
3550;DHT22;45572;48.804;8.330;2022-09-09T09:32:23;22.00;76.30
3550;DHT22;45572;48.804;8.330;2022-09-09T09:34:55;22.30;75.30
3550;DHT22;45572;48.804;8.330;2022-09-09T09:37:27;23.10;74.70
3550;DHT22;45572;48.804;8.330;2022-09-09T09:40:08;24.00;70.00
3550;DHT22;45572;48.804;8.330;2022-09-09T09:42:38;24.70;65.80
3550;DHT22;45572;48.804;8.330;2022-09-09T09:45:17;25.70;65.30
3550;DHT22;45572;48.804;8.330;2022-09-09T09:47:58;26.80;61.20
3550;DHT22;45572;48.804;8.330;2022-09-09T09:50:46;27.10;60.40
3550;DHT22;45572;48.804;8.330;2022-09-09T09:53:20;27.00;61.20
3550;DHT22;45572;48.804;8.330;2022-09-09T09:55:54;26.90;61.60
3550;DHT22;45572;48.804;8.330;2022-09-09T09:58:23;26.60;61.70
3550;DHT22;45572;48.804;8.330;2022-09-09T10:00:53;26.10;65.30
3550;DHT22;45572;48.804;8.330;2022-09-09T10:03:27;25.40;68.90
3550;DHT22;45572;48.804;8.330;2022-09-09T10:05:58;24.80;72.90
3550;DHT22;45572;48.804;8.330;2022-09-09T10:08:28;23.80;73.80
3550;DHT22;45572;48.804;8.330;2022-09-09T10:11:04;23.00;74.70
3550;DHT22;45572;48.804;8.330;2022-09-09T10:13:45;22.60;76.80
3550;DHT22;45572;48.804;8.330;2022-09-09T10:16:25;22.00;77.00
3550;DHT22;45572;48.804;8.330;2022-09-09T10:19:00;21.70;79.10
3550;DHT22;45572;48.804;8.330;2022-09-09T10:21:41;21.20;76.60
3550;DHT22;45572;48.804;8.330;2022-09-09T10:24:30;21.00;80.60
3550;DHT22;45572;48.804;8.330;2022-09-09T10:27:10;20.90;80.40
3550;DHT22;45572;48.804;8.330;2022-09-09T10:32:39;22.70;77.90
3550;DHT22;45572;48.804;8.330;2022-09-09T10:35:12;23.10;72.20
3550;DHT22;45572;48.804;8.330;2022-09-09T10:37:54;23.30;71.60
3550;DHT22;45572;48.804;8.330;2022-09-09T10:40:32;23.00;72.20
3550;DHT22;45572;48.804;8.330;2022-09-09T10:43:11;22.30;74.20
3550;DHT22;45572;48.804;8.330;2022-09-09T10:45:49;21.80;75.50
3550;DHT22;45572;48.804;8.330;2022-09-09T10:48:30;21.50;76.80
3550;DHT22;45572;48.804;8.330;2022-09-09T10:51:11;21.20;78.00
3550;DHT22;45572;48.804;8.330;2022-09-09T10:53:51;21.00;78.10
3550;DHT22;45572;48.804;8.330;2022-09-09T10:56:21;21.00;78.10
3550;DHT22;45572;48.804;8.330;2022-09-09T10:58:54;20.90;79.20
3550;DHT22;45572;48.804;8.330;2022-09-09T11:01:26;20.70;79.50
3550;DHT22;45572;48.804;8.330;2022-09-09T11:04:00;20.40;81.60
3550;DHT22;45572;48.804;8.330;2022-09-09T11:06:34;20.20;82.90
3550;DHT22;45572;48.804;8.330;2022-09-09T11:09:13;20.50;81.70
3550;DHT22;45572;48.804;8.330;2022-09-09T11:11:47;21.60;78.20
3550;DHT22;45572;48.804;8.330;2022-09-09T11:14:22;22.20;75.30
3550;DHT22;45572;48.804;8.330;2022-09-09T11:16:56;22.40;72.40
3550;DHT22;45572;48.804;8.330;2022-09-09T11:19:28;22.30;73.50
3550;DHT22;45572;48.804;8.330;2022-09-09T11:21:59;23.00;70.40
3550;DHT22;45572;48.804;8.330;2022-09-09T11:24:35;23.50;69.60
3550;DHT22;45572;48.804;8.330;2022-09-09T11:27:10;23.90;69.20
3550;DHT22;45572;48.804;8.330;2022-09-09T11:29:53;24.80;65.10
3550;DHT22;45572;48.804;8.330;2022-09-09T11:32:44;26.20;61.70
3550;DHT22;45572;48.804;8.330;2022-09-09T11:35:28;26.50;61.80
3550;DHT22;45572;48.804;8.330;2022-09-09T11:38:11;26.60;60.90
3550;DHT22;45572;48.804;8.330;2022-09-09T11:40:46;25.10;61.40
3550;DHT22;45572;48.804;8.330;2022-09-09T11:43:20;24.20;65.40
3550;DHT22;45572;48.804;8.330;2022-09-09T11:45:57;23.80;65.80
3550;DHT22;45572;48.804;8.330;2022-09-09T11:48:31;23.80;68.10
3550;DHT22;45572;48.804;8.330;2022-09-09T11:51:03;24.40;66.10
3550;DHT22;45572;48.804;8.330;2022-09-09T11:53:32;25.20;64.60
3550;DHT22;45572;48.804;8.330;2022-09-09T11:56:12;25.90;61.70
3550;DHT22;45572;48.804;8.330;2022-09-09T11:58:43;26.50;60.20
3550;DHT22;45572;48.804;8.330;2022-09-09T12:01:15;27.00;56.40
3550;DHT22;45572;48.804;8.330;2022-09-09T12:03:45;27.30;56.40
3550;DHT22;45572;48.804;8.330;2022-09-09T12:06:19;28.50;55.00
3550;DHT22;45572;48.804;8.330;2022-09-09T12:08:57;29.00;53.00
3550;DHT22;45572;48.804;8.330;2022-09-09T12:11:29;28.50;52.50
3550;DHT22;45572;48.804;8.330;2022-09-09T12:13:58;28.00;54.00
3550;DHT22;45572;48.804;8.330;2022-09-09T12:16:30;27.20;52.90
3550;DHT22;45572;48.804;8.330;2022-09-09T12:19:14;26.50;54.70
3550;DHT22;45572;48.804;8.330;2022-09-09T12:21:48;26.00;56.40
3550;DHT22;45572;48.804;8.330;2022-09-09T12:24:24;25.60;57.10
3550;DHT22;45572;48.804;8.330;2022-09-09T12:27:05;25.30;58.20
3550;DHT22;45572;48.804;8.330;2022-09-09T12:29:41;25.10;57.80
3550;DHT22;45572;48.804;8.330;2022-09-09T12:32:15;25.00;58.00
3550;DHT22;45572;48.804;8.330;2022-09-09T12:34:47;24.70;59.00
3550;DHT22;45572;48.804;8.330;2022-09-09T12:37:25;24.40;58.80
3550;DHT22;45572;48.804;8.330;2022-09-09T12:39:56;24.30;61.00
3550;DHT22;45572;48.804;8.330;2022-09-09T12:42:26;23.90;64.80
3550;DHT22;45572;48.804;8.330;2022-09-09T12:44:55;23.30;69.60
3550;DHT22;45572;48.804;8.330;2022-09-09T12:47:28;23.30;73.30
3550;DHT22;45572;48.804;8.330;2022-09-09T12:50:00;23.30;69.60
3550;DHT22;45572;48.804;8.330;2022-09-09T12:52:31;23.40;67.60
3550;DHT22;45572;48.804;8.330;2022-09-09T12:55:02;23.40;68.10
3550;DHT22;45572;48.804;8.330;2022-09-09T12:57:37;23.50;63.70
3550;DHT22;45572;48.804;8.330;2022-09-09T13:00:12;23.60;63.60
3550;DHT22;45572;48.804;8.330;2022-09-09T13:02:47;23.50;63.80
3550;DHT22;45572;48.804;8.330;2022-09-09T13:05:19;23.50;64.30
3550;DHT22;45572;48.804;8.330;2022-09-09T13:07:48;23.70;63.50
3550;DHT22;45572;48.804;8.330;2022-09-09T13:10:23;23.60;64.20
3550;DHT22;45572;48.804;8.330;2022-09-09T13:13:14;23.70;64.80
3550;DHT22;45572;48.804;8.330;2022-09-09T13:15:50;23.60;63.20
3550;DHT22;45572;48.804;8.330;2022-09-09T13:18:22;23.60;64.00
3550;DHT22;45572;48.804;8.330;2022-09-09T13:20:51;23.60;64.70
3550;DHT22;45572;48.804;8.330;2022-09-09T13:23:20;23.50;64.70
3550;DHT22;45572;48.804;8.330;2022-09-09T13:25:57;23.40;63.60
3550;DHT22;45572;48.804;8.330;2022-09-09T13:28:28;23.30;63.50
3550;DHT22;45572;48.804;8.330;2022-09-09T13:31:00;23.20;62.60
3550;DHT22;45572;48.804;8.330;2022-09-09T13:33:31;23.00;62.40
3550;DHT22;45572;48.804;8.330;2022-09-09T13:36:01;22.80;62.20
3550;DHT22;45572;48.804;8.330;2022-09-09T13:38:33;22.50;67.70
3550;DHT22;45572;48.804;8.330;2022-09-09T13:41:03;21.90;71.00
3550;DHT22;45572;48.804;8.330;2022-09-09T13:43:36;21.50;72.70
3550;DHT22;45572;48.804;8.330;2022-09-09T13:46:22;21.40;72.00
3550;DHT22;45572;48.804;8.330;2022-09-09T13:48:54;21.40;72.30
3550;DHT22;45572;48.804;8.330;2022-09-09T13:51:30;21.40;72.00
3550;DHT22;45572;48.804;8.330;2022-09-09T13:53:59;21.50;71.90
3550;DHT22;45572;48.804;8.330;2022-09-09T13:56:27;21.60;73.70
3550;DHT22;45572;48.804;8.330;2022-09-09T13:58:57;21.90;72.00
3550;DHT22;45572;48.804;8.330;2022-09-09T14:01:24;22.20;72.20
3550;DHT22;45572;48.804;8.330;2022-09-09T14:03:55;22.40;69.40
3550;DHT22;45572;48.804;8.330;2022-09-09T14:06:23;22.70;68.80
3550;DHT22;45572;48.804;8.330;2022-09-09T14:08:51;22.70;67.80
3550;DHT22;45572;48.804;8.330;2022-09-09T14:11:21;22.70;67.60
3550;DHT22;45572;48.804;8.330;2022-09-09T14:13:49;22.60;68.70
3550;DHT22;45572;48.804;8.330;2022-09-09T14:16:18;22.60;67.90
3550;DHT22;45572;48.804;8.330;2022-09-09T14:18:49;22.40;69.20
3550;DHT22;45572;48.804;8.330;2022-09-09T14:21:17;22.60;68.60
3550;DHT22;45572;48.804;8.330;2022-09-09T14:23:48;22.70;67.20
3550;DHT22;45572;48.804;8.330;2022-09-09T14:26:16;22.80;67.60
3550;DHT22;45572;48.804;8.330;2022-09-09T14:28:45;22.90;67.20
3550;DHT22;45572;48.804;8.330;2022-09-09T14:31:23;22.80;66.90
3550;DHT22;45572;48.804;8.330;2022-09-09T14:33:51;22.50;67.00
3550;DHT22;45572;48.804;8.330;2022-09-09T14:36:19;22.40;67.50
3550;DHT22;45572;48.804;8.330;2022-09-09T14:38:47;22.40;67.90
3550;DHT22;45572;48.804;8.330;2022-09-09T14:41:17;22.40;67.50
3550;DHT22;45572;48.804;8.330;2022-09-09T14:43:45;22.30;68.10
3550;DHT22;45572;48.804;8.330;2022-09-09T14:46:15;22.50;68.00
3550;DHT22;45572;48.804;8.330;2022-09-09T14:48:45;22.70;69.20
3550;DHT22;45572;48.804;8.330;2022-09-09T14:51:17;22.80;66.30
3550;DHT22;45572;48.804;8.330;2022-09-09T14:53:46;23.00;65.90
3550;DHT22;45572;48.804;8.330;2022-09-09T14:56:16;22.80;66.70
3550;DHT22;45572;48.804;8.330;2022-09-09T14:58:44;22.80;67.50
3550;DHT22;45572;48.804;8.330;2022-09-09T15:01:14;22.60;68.30
3550;DHT22;45572;48.804;8.330;2022-09-09T15:03:48;22.70;72.60
3550;DHT22;45572;48.804;8.330;2022-09-09T15:06:16;22.30;76.20
3550;DHT22;45572;48.804;8.330;2022-09-09T15:08:45;21.70;79.60
3550;DHT22;45572;48.804;8.330;2022-09-09T15:11:14;21.00;80.70
3550;DHT22;45572;48.804;8.330;2022-09-09T15:13:43;20.10;84.10
3550;DHT22;45572;48.804;8.330;2022-09-09T15:16:13;19.40;87.10
3550;DHT22;45572;48.804;8.330;2022-09-09T15:18:42;19.00;88.70
3550;DHT22;45572;48.804;8.330;2022-09-09T15:21:14;18.70;89.90
3550;DHT22;45572;48.804;8.330;2022-09-09T15:23:43;18.20;90.30
3550;DHT22;45572;48.804;8.330;2022-09-09T15:26:11;18.00;91.20
3550;DHT22;45572;48.804;8.330;2022-09-09T15:28:41;17.80;90.70
3550;DHT22;45572;48.804;8.330;2022-09-09T15:31:13;17.50;91.50
3550;DHT22;45572;48.804;8.330;2022-09-09T15:33:41;17.30;92.50
3550;DHT22;45572;48.804;8.330;2022-09-09T15:36:17;17.20;92.60
3550;DHT22;45572;48.804;8.330;2022-09-09T15:38:45;17.20;94.10
3550;DHT22;45572;48.804;8.330;2022-09-09T15:41:15;17.20;92.80
3550;DHT22;45572;48.804;8.330;2022-09-09T15:43:44;17.10;93.70
3550;DHT22;45572;48.804;8.330;2022-09-09T15:46:28;17.20;93.40
3550;DHT22;45572;48.804;8.330;2022-09-09T15:48:58;17.40;94.80
3550;DHT22;45572;48.804;8.330;2022-09-09T15:51:27;17.70;94.10
3550;DHT22;45572;48.804;8.330;2022-09-09T15:54:12;17.90;94.20
3550;DHT22;45572;48.804;8.330;2022-09-09T15:56:40;18.00;93.20
3550;DHT22;45572;48.804;8.330;2022-09-09T15:59:09;18.00;92.20
3550;DHT22;45572;48.804;8.330;2022-09-09T16:01:37;18.20;91.80
3550;DHT22;45572;48.804;8.330;2022-09-09T16:04:06;18.30;91.00
3550;DHT22;45572;48.804;8.330;2022-09-09T16:06:35;18.30;90.00
3550;DHT22;45572;48.804;8.330;2022-09-09T16:09:05;18.20;91.00
3550;DHT22;45572;48.804;8.330;2022-09-09T16:11:35;18.00;91.20
3550;DHT22;45572;48.804;8.330;2022-09-09T16:14:07;18.00;90.90
3550;DHT22;45572;48.804;8.330;2022-09-09T16:16:35;18.10;91.30
3550;DHT22;45572;48.804;8.330;2022-09-09T16:19:05;18.00;91.00
3550;DHT22;45572;48.804;8.330;2022-09-09T16:21:36;18.00;91.00
3550;DHT22;45572;48.804;8.330;2022-09-09T16:24:08;17.80;91.30
3550;DHT22;45572;48.804;8.330;2022-09-09T16:26:38;17.50;92.30